Time;durP1;ratioP1;P1;durP2;ratioP2;P2;SDS_P1;SDS_P2;PMS_P1;PMS_P2;Temp;Humidity;BMP_temperature;BMP_pressure;BME280_temperature;BME280_humidity;BME280_pressure;Samples;Min_cycle;Max_cycle;Signal;HPM_P1;HPM_P2
2021/01/09 00:02:05;;;;;;;7.65;2.55;;;;;;;0.72;100.00;100642.44;4970917;28;20415;-75
2021/01/09 00:05:10;;;;;;;4.03;1.35;;;;;;;0.72;100.00;100642.44;4970644;28;21153;-75
2021/01/09 00:08:13;;;;;;;10.88;2.40;;;;;;;0.73;100.00;100644.03;4959263;28;20074;-76
2021/01/09 00:11:17;;;;;;;5.60;2.38;;;;;;;0.73;100.00;100644.81;4959099;28;20411;-75
2021/01/09 00:14:21;;;;;;;4.28;1.35;;;;;;;0.76;100.00;100645.97;4969697;28;20497;-75
2021/01/09 00:17:24;;;;;;;3.15;1.77;;;;;;;0.75;100.00;100650.69;4971641;28;20050;-75
2021/01/09 00:20:28;;;;;;;7.13;2.53;;;;;;;0.76;100.00;100651.47;4971604;28;20498;-75
2021/01/09 00:23:31;;;;;;;9.40;2.78;;;;;;;0.81;100.00;100651.06;4971098;28;20073;-75
2021/01/09 00:26:36;;;;;;;3.72;2.17;;;;;;;0.82;100.00;100652.66;4971093;28;20057;-75
2021/01/09 00:29:43;;;;;;;4.65;2.38;;;;;;;0.80;100.00;100655.00;4971179;28;20053;-75
2021/01/09 00:32:47;;;;;;;6.63;2.53;;;;;;;0.77;100.00;100651.09;4970623;28;20100;-75
2021/01/09 00:35:53;;;;;;;4.07;1.77;;;;;;;0.75;100.00;100652.66;4971046;28;20075;-76
2021/01/09 00:38:57;;;;;;;5.15;2.65;;;;;;;0.76;100.00;100654.19;4971032;28;20050;-75
2021/01/09 00:42:01;;;;;;;3.53;2.17;;;;;;;0.72;100.00;100653.41;4970625;28;20325;-75
2021/01/09 00:45:06;;;;;;;1.08;1.02;;;;;;;0.69;100.00;100656.94;4970449;28;20442;-75
2021/01/09 00:48:09;;;;;;;4.13;2.33;;;;;;;0.67;100.00;100662.03;4970470;28;20054;-75
2021/01/09 00:51:17;;;;;;;5.05;1.25;;;;;;;0.67;100.00;100656.56;4970528;28;20136;-75
2021/01/09 00:54:20;;;;;;;2.75;1.83;;;;;;;0.64;100.00;100660.06;4968960;28;20184;-76
2021/01/09 00:57:24;;;;;;;3.47;1.73;;;;;;;0.65;100.00;100654.19;4970414;28;20066;-75
2021/01/09 01:00:27;;;;;;;4.63;1.63;;;;;;;0.64;100.00;100655.38;4970524;28;20521;-75
2021/01/09 01:03:30;;;;;;;8.23;4.05;;;;;;;0.63;100.00;100656.53;4970664;28;20058;-75
2021/01/09 01:06:34;;;;;;;9.48;3.13;;;;;;;0.61;100.00;100655.34;4970380;28;20522;-75
2021/01/09 01:09:38;;;;;;;3.13;1.90;;;;;;;0.57;100.00;100660.03;4970445;28;20066;-75
2021/01/09 01:12:42;;;;;;;6.95;2.83;;;;;;;0.56;100.00;100662.00;4970896;28;20057;-75
2021/01/09 01:15:45;;;;;;;3.67;2.05;;;;;;;0.58;100.00;100669.84;4970275;28;20415;-75
2021/01/09 01:18:49;;;;;;;7.60;2.90;;;;;;;0.55;100.00;100665.13;4969974;28;20429;-75
2021/01/09 01:21:53;;;;;;;5.55;1.92;;;;;;;0.55;100.00;100671.41;4969585;28;20423;-75
2021/01/09 01:24:58;;;;;;;3.88;1.88;;;;;;;0.55;100.00;100670.59;4969815;28;20073;-75
2021/01/09 01:28:01;;;;;;;5.97;2.63;;;;;;;0.55;100.00;100676.09;4968654;28;20065;-75
2021/01/09 01:31:06;;;;;;;3.72;1.98;;;;;;;0.57;100.00;100684.69;4969414;28;20411;-75
2021/01/09 01:34:09;;;;;;;5.43;1.13;;;;;;;0.58;100.00;100687.06;4969672;28;20805;-75
2021/01/09 01:37:13;;;;;;;6.80;3.00;;;;;;;0.60;100.00;100692.16;4968910;28;20152;-75
2021/01/09 01:40:16;;;;;;;1.67;1.00;;;;;;;0.63;100.00;100699.59;4969454;28;20117;-75
2021/01/09 01:43:20;;;;;;;1.30;1.20;;;;;;;0.62;100.00;100698.03;4966960;28;20244;-75
2021/01/09 01:46:23;;;;;;;3.50;1.42;;;;;;;0.63;100.00;100700.38;4969549;28;20062;-74
2021/01/09 01:49:26;;;;;;;1.48;1.15;;;;;;;0.62;100.00;100698.03;4970146;28;20050;-74
2021/01/09 01:52:30;;;;;;;4.13;1.60;;;;;;;0.65;100.00;100700.78;4969420;28;20054;-75
2021/01/09 01:55:35;;;;;;;3.45;1.80;;;;;;;0.63;100.00;100700.38;4969568;28;20054;-74
2021/01/09 01:58:38;;;;;;;5.55;2.30;;;;;;;0.63;100.00;100707.81;4968881;28;20049;-75
2021/01/09 02:01:47;;;;;;;17.92;2.15;;;;;;;0.61;100.00;100712.91;4969017;28;20054;-75
2021/01/09 02:04:57;;;;;;;2.90;1.58;;;;;;;0.64;100.00;100712.13;4985259;28;20501;-75
2021/01/09 02:08:05;;;;;;;5.65;1.90;;;;;;;0.64;100.00;100723.09;4988434;28;20859;-75
2021/01/09 02:11:20;;;;;;;4.63;2.88;;;;;;;0.62;100.00;100719.97;4986878;28;20170;-75
2021/01/09 02:14:35;;;;;;;2.40;1.90;;;;;;;0.62;100.00;100714.47;4986918;28;20209;-74
2021/01/09 02:17:40;;;;;;;2.47;1.55;;;;;;;0.63;100.00;100721.50;4987459;28;20057;-73
2021/01/09 02:20:45;;;;;;;6.65;2.72;;;;;;;0.70;100.00;100716.06;4988325;28;20107;-73
2021/01/09 02:23:48;;;;;;;8.68;2.28;;;;;;;0.74;100.00;100727.81;4986302;28;20149;-73
2021/01/09 02:26:51;;;;;;;3.90;1.73;;;;;;;0.72;100.00;100732.91;4987959;28;20057;-74
2021/01/09 02:30:02;;;;;;;4.85;1.83;;;;;;;0.70;100.00;100738.00;4988386;28;20407;-74
2021/01/09 02:33:09;;;;;;;3.23;1.63;;;;;;;0.68;100.00;100732.09;4988410;28;20173;-74
2021/01/09 02:36:13;;;;;;;6.32;2.58;;;;;;;0.66;100.00;100728.97;4987417;28;20069;-74
2021/01/09 02:39:17;;;;;;;3.95;0.95;;;;;;;0.66;100.00;100731.72;4987469;28;20049;-75
2021/01/09 02:42:21;;;;;;;6.40;1.85;;;;;;;0.63;100.00;100729.75;4985991;28;20077;-75
2021/01/09 02:45:25;;;;;;;10.73;3.45;;;;;;;0.61;100.00;100729.34;4988134;28;20057;-74
2021/01/09 02:48:28;;;;;;;8.95;2.78;;;;;;;0.59;100.00;100740.69;4988368;28;20054;-74
2021/01/09 02:51:33;;;;;;;4.38;2.42;;;;;;;0.56;100.00;100744.19;4987873;28;20069;-75
2021/01/09 02:54:36;;;;;;;6.18;2.60;;;;;;;0.55;100.00;100742.66;4988186;28;20057;-74
2021/01/09 02:57:40;;;;;;;5.65;2.30;;;;;;;0.53;100.00;100744.19;4987730;28;20430;-75
2021/01/09 03:00:44;;;;;;;1.27;1.08;;;;;;;0.52;100.00;100745.38;4987625;28;20069;-74
2021/01/09 03:03:47;;;;;;;6.45;3.08;;;;;;;0.53;100.00;100746.94;4980082;28;20058;-75
2021/01/09 03:06:50;;;;;;;6.85;2.35;;;;;;;0.52;100.00;100742.66;4968174;28;20061;-74
2021/01/09 03:09:54;;;;;;;6.65;2.38;;;;;;;0.50;100.00;100739.47;4968661;28;20109;-75
2021/01/09 03:12:57;;;;;;;3.72;2.00;;;;;;;0.45;100.00;100745.34;4968360;28;20054;-75
2021/01/09 03:16:00;;;;;;;29.45;3.42;;;;;;;0.40;100.00;100741.03;4968358;28;20059;-74
2021/01/09 03:19:03;;;;;;;11.88;2.63;;;;;;;0.36;100.00;100750.41;5039273;23;21245;-79
2021/01/09 03:22:07;;;;;;;3.92;1.73;;;;;;;0.33;100.00;100746.47;5023930;28;20061;-77
2021/01/09 03:25:11;;;;;;;8.52;2.28;;;;;;;0.34;100.00;100741.78;5026522;28;20918;-79
2021/01/09 03:28:14;;;;;;;3.95;2.70;;;;;;;0.33;100.00;100751.16;5007123;28;20049;-79
2021/01/09 03:31:18;;;;;;;7.70;2.72;;;;;;;0.34;100.00;100752.72;5005403;28;20049;-79
2021/01/09 03:34:21;;;;;;;2.58;1.25;;;;;;;0.34;100.00;100750.78;5007407;28;20056;-77
2021/01/09 03:37:25;;;;;;;2.42;1.40;;;;;;;0.38;100.00;100753.53;5007295;28;20421;-76
2021/01/09 03:40:28;;;;;;;9.93;1.23;;;;;;;0.39;100.00;100755.13;5026886;28;20056;-77
2021/01/09 03:43:32;;;;;;;7.28;2.03;;;;;;;0.41;100.00;100752.78;5026728;28;20056;-77
2021/01/09 03:46:35;;;;;;;13.85;3.15;;;;;;;0.41;100.00;100759.00;5026627;28;20060;-77
2021/01/09 03:49:39;;;;;;;12.68;1.75;;;;;;;0.41;100.00;100761.00;5026915;28;20432;-79
2021/01/09 03:52:43;;;;;;;5.47;1.50;;;;;;;0.38;100.00;100768.03;5028967;28;20045;-79
2021/01/09 03:55:46;;;;;;;6.93;1.25;;;;;;;0.35;100.00;100757.03;5029872;28;20060;-78
2021/01/09 03:58:50;;;;;;;1.88;1.00;;;;;;;0.33;100.00;100762.09;5030107;28;20053;-78
2021/01/09 04:01:53;;;;;;;1.90;1.77;;;;;;;0.31;100.00;100762.50;5029394;28;20057;-78
2021/01/09 04:04:57;;;;;;;8.95;2.75;;;;;;;0.30;100.00;100763.69;5017414;28;20049;-78
2021/01/09 04:08:00;;;;;;;17.27;1.00;;;;;;;0.29;100.00;100769.53;5028668;28;20053;-78
2021/01/09 04:11:04;;;;;;;6.13;1.77;;;;;;;0.31;100.00;100767.19;5029617;28;20090;-78
2021/01/09 04:14:07;;;;;;;2.25;1.38;;;;;;;0.32;100.00;100768.78;5015942;28;20053;-78
2021/01/09 04:17:11;;;;;;;2.70;1.45;;;;;;;0.29;100.00;100769.53;5010074;28;21015;-78
2021/01/09 04:20:14;;;;;;;5.63;2.15;;;;;;;0.30;100.00;100768.38;5009204;28;20057;-78
2021/01/09 04:23:17;;;;;;;2.22;1.92;;;;;;;0.26;100.00;100762.09;4996031;28;20049;-78
2021/01/09 04:26:21;;;;;;;3.60;1.17;;;;;;;0.29;100.00;100772.25;5010466;28;20073;-78
2021/01/09 04:29:25;;;;;;;4.25;1.92;;;;;;;0.25;100.00;100768.72;5010732;28;20445;-78
2021/01/09 04:32:29;;;;;;;6.68;2.42;;;;;;;0.26;100.00;100765.59;4998320;28;20105;-79
2021/01/09 04:35:33;;;;;;;3.63;1.23;;;;;;;0.27;100.00;100763.66;5010007;28;20049;-79
2021/01/09 04:38:37;;;;;;;7.85;1.58;;;;;;;0.25;100.00;100775.00;5010784;28;20049;-79
2021/01/09 04:41:40;;;;;;;3.03;1.38;;;;;;;0.26;100.00;100767.56;5015412;28;20057;-78
2021/01/09 04:44:44;;;;;;;2.20;1.52;;;;;;;0.24;100.00;100761.69;5015560;28;20069;-78
2021/01/09 04:47:50;;;;;;;10.63;2.15;;;;;;;0.25;100.00;100776.94;5009183;28;20691;-79
2021/01/09 04:50:54;;;;;;;2.80;1.63;;;;;;;0.21;100.00;100778.88;5009050;28;20053;-79
2021/01/09 04:53:59;;;;;;;6.78;2.13;;;;;;;0.22;100.00;100777.72;4997360;28;20053;-78
2021/01/09 04:57:03;;;;;;;4.43;1.85;;;;;;;0.18;100.00;100782.38;5009448;28;20048;-79
2021/01/09 05:00:06;;;;;;;4.50;1.58;;;;;;;0.17;100.00;100787.09;5009644;28;20053;-78
2021/01/09 05:03:10;;;;;;;4.78;1.52;;;;;;;0.16;100.00;100784.72;5008372;28;20065;-79
2021/01/09 05:06:20;;;;;;;3.25;1.75;;;;;;;0.13;100.00;100774.53;5008523;28;20425;-78
2021/01/09 05:09:24;;;;;;;5.05;1.85;;;;;;;0.10;100.00;100783.50;5007733;28;20447;-78
2021/01/09 05:12:31;;;;;;;8.43;1.88;;;;;;;0.06;100.00;100788.19;5009387;28;20049;-79
2021/01/09 05:15:37;;;;;;;2.47;1.73;;;;;;;0.03;100.00;100780.72;5022272;28;20064;-78
2021/01/09 05:18:42;;;;;;;9.63;3.15;;;;;;;-0.01;100.00;100794.41;5028232;28;20421;-78
2021/01/09 05:21:45;;;;;;;2.15;1.02;;;;;;;-0.03;100.00;100794.78;5028313;28;20140;-79
2021/01/09 05:24:49;;;;;;;13.25;2.88;;;;;;;-0.08;100.00;100786.94;5028127;28;20056;-78
2021/01/09 05:27:57;;;;;;;2.80;1.08;;;;;;;-0.12;100.00;100786.13;5028145;28;20057;-79
2021/01/09 05:31:02;;;;;;;6.68;2.13;;;;;;;-0.17;100.00;100793.88;5028096;28;20057;-81
2021/01/09 05:34:06;;;;;;;10.93;2.58;;;;;;;-0.22;100.00;100795.03;5027975;28;20048;-78
2021/01/09 05:37:20;;;;;;;7.35;3.10;;;;;;;-0.27;100.00;100795.38;5028301;28;20056;-78
2021/01/09 05:40:23;;;;;;;4.10;1.48;;;;;;;-0.35;100.00;100792.97;5026865;28;20056;-78
2021/01/09 05:43:27;;;;;;;5.10;1.27;;;;;;;-0.46;100.00;100795.63;5029101;28;20052;-78
2021/01/09 05:46:33;;;;;;;5.80;1.60;;;;;;;-0.55;100.00;100805.31;5027963;28;20060;-78
2021/01/09 05:49:41;;;;;;;3.92;1.42;;;;;;;-0.62;100.00;100803.28;5016742;28;20505;-78
2021/01/09 05:52:47;;;;;;;5.00;1.48;;;;;;;-0.65;100.00;100811.47;5009265;28;20053;-78
2021/01/09 05:55:50;;;;;;;9.32;2.63;;;;;;;-0.69;100.00;100805.94;5026020;28;20072;-78
2021/01/09 05:58:55;;;;;;;3.80;1.88;;;;;;;-0.70;100.00;100807.13;5027801;28;20421;-78
2021/01/09 06:02:00;;;;;;;2.88;1.20;;;;;;;-0.68;100.00;100818.47;5027752;28;20751;-78
2021/01/09 06:05:06;;;;;;;7.38;1.70;;;;;;;-0.67;100.00;100825.50;5027701;28;20068;-78
2021/01/09 06:08:11;;;;;;;5.13;1.35;;;;;;;-0.66;100.00;100831.78;5027615;28;20847;-79
2021/01/09 06:11:20;;;;;;;9.30;2.35;;;;;;;-0.66;100.00;100829.81;5026783;28;20073;-78
2021/01/09 06:14:27;;;;;;;3.88;1.80;;;;;;;-0.60;100.00;100827.53;5021374;28;20048;-78
2021/01/09 06:17:34;;;;;;;8.88;2.55;;;;;;;-0.58;100.00;100833.41;5007828;28;20052;-78
2021/01/09 06:20:38;;;;;;;2.47;1.55;;;;;;;-0.56;100.00;100826.41;5007680;28;20057;-77
2021/01/09 06:23:42;;;;;;;7.90;3.70;;;;;;;-0.54;100.00;100832.28;5018298;28;20548;-78
2021/01/09 06:26:45;;;;;;;6.43;1.92;;;;;;;-0.52;100.00;100835.41;5008163;28;20061;-77
2021/01/09 06:29:49;;;;;;;8.13;2.95;;;;;;;-0.50;100.00;100840.53;5018316;28;20513;-78
2021/01/09 06:32:58;;;;;;;5.25;2.45;;;;;;;-0.50;100.00;100843.28;5015254;28;20767;-78
2021/01/09 06:36:04;;;;;;;20.23;4.38;;;;;;;-0.49;100.00;100842.88;5017740;28;20064;-77
2021/01/09 06:39:07;;;;;;;8.35;3.90;;;;;;;-0.49;100.00;100842.09;5017116;28;20037;-78
2021/01/09 06:42:11;;;;;;;10.68;4.50;;;;;;;-0.50;100.00;100841.31;5016858;28;20042;-78
2021/01/09 06:45:15;;;;;;;6.97;2.65;;;;;;;-0.52;100.00;100843.63;5016390;28;20042;-78
2021/01/09 06:48:21;;;;;;;14.32;4.82;;;;;;;-0.54;100.00;100840.47;5015754;28;20052;-78
2021/01/09 06:51:40;;;;;;;5.88;2.60;;;;;;;-0.55;100.00;100838.94;5018271;28;20453;-78
2021/01/09 06:54:45;;;;;;;17.30;3.95;;;;;;;-0.57;100.00;100835.78;5020645;28;20271;-77
2021/01/09 06:57:49;;;;;;;10.13;2.90;;;;;;;-0.57;100.00;100837.72;5026807;28;20053;-78
2021/01/09 07:00:53;;;;;;;4.18;2.35;;;;;;;-0.57;100.00;100844.00;5027048;28;20042;-77
2021/01/09 07:03:57;;;;;;;2.05;1.83;;;;;;;-0.54;100.00;100854.16;5026938;28;20057;-78
2021/01/09 07:07:00;;;;;;;5.95;2.60;;;;;;;-0.54;100.00;100854.16;5027042;28;20056;-77
2021/01/09 07:10:15;;;;;;;6.90;3.50;;;;;;;-0.57;100.00;100846.72;5027285;28;20806;-79
2021/01/09 07:13:19;;;;;;;13.07;3.40;;;;;;;-0.60;100.00;100846.66;5025501;28;20536;-79
2021/01/09 07:16:26;;;;;;;9.80;3.95;;;;;;;-0.62;100.00;100852.53;5007368;28;20054;-79
2021/01/09 07:19:30;;;;;;;5.97;1.95;;;;;;;-0.68;100.00;100850.50;5007170;28;20065;-79
2021/01/09 07:22:41;;;;;;;7.55;2.10;;;;;;;-0.68;100.00;100862.25;5007555;28;20069;-79
2021/01/09 07:25:46;;;;;;;4.60;3.20;;;;;;;-0.72;100.00;100855.94;5007112;28;20061;-79
2021/01/09 07:28:52;;;;;;;10.07;3.88;;;;;;;-0.73;100.00;100865.31;5010706;28;20168;-77
2021/01/09 07:31:55;;;;;;;10.48;3.28;;;;;;;-0.74;100.00;100866.47;5010653;28;20417;-77
2021/01/09 07:35:06;;;;;;;9.02;3.80;;;;;;;-0.77;100.00;100864.47;5010340;28;20049;-77
2021/01/09 07:39:13;;;;;;;11.77;3.33;;;;;;;-0.81;100.00;100869.91;5045902;23;20070;-78
2021/01/09 07:42:24;;;;;;;5.25;2.13;;;;;;;-0.91;100.00;100864.34;4969074;28;20523;-78
2021/01/09 07:45:32;;;;;;;5.30;2.58;;;;;;;-0.98;100.00;100880.66;4958827;28;20131;-78
2021/01/09 07:48:37;;;;;;;11.50;4.95;;;;;;;-1.06;100.00;100884.47;4975197;28;20057;-77
2021/01/09 07:51:54;;;;;;;3.90;3.03;;;;;;;-1.15;100.00;100881.22;4971679;28;20414;-77
2021/01/09 07:54:58;;;;;;;13.38;4.68;;;;;;;-1.25;100.00;100881.84;4940074;29;20811;-78
2021/01/09 07:58:01;;;;;;;20.27;3.80;;;;;;;-1.38;100.00;100880.50;4944074;29;20423;-80
2021/01/09 08:01:04;;;;;;;7.55;2.35;;;;;;;-1.49;100.00;100876.88;4952299;29;20043;-78
2021/01/09 08:04:10;;;;;;;10.20;2.95;;;;;;;-1.57;100.00;100892.34;4951349;29;20082;-80
2021/01/09 08:07:18;;;;;;;6.65;3.15;;;;;;;-1.64;100.00;100895.78;4951425;29;20473;-81
2021/01/09 08:10:29;;;;;;;4.45;2.55;;;;;;;-1.69;100.00;100882.41;4949785;29;20058;-80
2021/01/09 08:13:32;;;;;;;3.53;2.33;;;;;;;-1.72;100.00;100896.81;4952310;29;20059;-79
2021/01/09 08:16:36;;;;;;;10.85;3.90;;;;;;;-1.78;100.00;100898.31;4952380;29;20085;-79
2021/01/09 08:19:39;;;;;;;11.88;5.10;;;;;;;-1.82;100.00;100888.47;4951360;29;20040;-80
2021/01/09 08:22:50;;;;;;;6.28;2.25;;;;;;;-1.82;100.00;100896.66;4950832;29;20051;-77
2021/01/09 08:25:54;;;;;;;10.82;4.80;;;;;;;-1.89;100.00;100880.97;4951099;29;20062;-80
2021/01/09 08:28:58;;;;;;;15.88;3.50;;;;;;;-1.88;100.00;100882.53;4939149;29;20043;-80
2021/01/09 08:32:03;;;;;;;12.35;4.18;;;;;;;-1.92;100.00;100881.69;4950999;29;20047;-80
2021/01/09 08:35:09;;;;;;;7.95;3.25;;;;;;;-1.91;100.00;100894.19;4950862;29;20051;-80
2021/01/09 08:38:13;;;;;;;7.38;2.50;;;;;;;-1.93;100.00;100896.50;4949724;28;20714;-80
2021/01/09 08:41:16;;;;;;;6.43;3.35;;;;;;;-1.92;100.00;100913.66;4946784;28;20811;-79
2021/01/09 08:44:20;;;;;;;3.97;2.35;;;;;;;-1.96;100.00;100916.34;4988353;28;20049;-80
2021/01/09 08:47:26;;;;;;;12.43;4.53;;;;;;;-1.97;100.00;100912.00;4990024;28;20521;-79
2021/01/09 08:50:32;;;;;;;5.95;3.85;;;;;;;-1.96;100.00;100913.59;4977835;28;20046;-79
2021/01/09 08:53:48;;;;;;;4.85;3.35;;;;;;;-1.98;100.00;100920.56;4989568;28;20524;-80
2021/01/09 08:56:52;;;;;;;4.95;2.42;;;;;;;-2.00;100.00;100912.75;4989134;28;20050;-79
2021/01/09 08:59:55;;;;;;;6.70;2.65;;;;;;;-2.01;100.00;100916.63;4977411;28;20057;-79
2021/01/09 09:02:59;;;;;;;2.28;1.75;;;;;;;-2.02;100.00;100915.06;4988670;28;20049;-78
2021/01/09 09:06:08;;;;;;;3.20;2.50;;;;;;;-2.04;100.00;100906.47;4988923;28;20059;-79
2021/01/09 09:09:15;;;;;;;8.40;3.30;;;;;;;-2.02;100.00;100919.72;4988992;28;20283;-80
2021/01/09 09:12:23;;;;;;;3.70;2.85;;;;;;;-2.00;100.00;100926.41;4986678;28;20410;-79
2021/01/09 09:15:29;;;;;;;7.10;2.60;;;;;;;-1.99;100.00;100927.19;4977639;28;20049;-80
2021/01/09 09:18:33;;;;;;;12.05;2.97;;;;;;;-1.95;100.00;100923.34;4989204;28;20509;-78
2021/01/09 09:21:41;;;;;;;7.03;2.17;;;;;;;-1.90;100.00;100933.97;4988322;28;20817;-78
2021/01/09 09:24:45;;;;;;;7.18;3.92;;;;;;;-1.89;100.00;100935.56;4989105;28;20057;-78
2021/01/09 09:27:49;;;;;;;4.57;2.33;;;;;;;-1.85;100.00;100936.41;4988737;28;20053;-78
2021/01/09 09:30:53;;;;;;;3.25;2.83;;;;;;;-1.79;100.00;100943.13;4989030;28;20148;-79
2021/01/09 09:34:03;;;;;;;2.97;2.45;;;;;;;-1.75;100.00;100941.22;4973229;28;20554;-79
2021/01/09 09:37:07;;;;;;;27.33;2.97;;;;;;;-1.72;100.00;100935.06;4978181;28;20109;-78
2021/01/09 09:40:29;;;;;;;10.70;3.42;;;;;;;-1.68;100.00;100935.91;4985076;28;20046;-78
2021/01/09 09:43:32;;;;;;;4.60;2.40;;;;;;;-1.67;100.00;100934.72;4967938;28;20224;-77
2021/01/09 09:46:40;;;;;;;27.23;3.25;;;;;;;-1.66;100.00;100933.59;4957593;28;20081;-79
2021/01/09 09:49:44;;;;;;;11.90;3.75;;;;;;;-1.62;100.00;100928.97;4967523;28;20051;-77
2021/01/09 09:53:00;;;;;;;14.70;4.53;;;;;;;-1.52;100.00;100932.22;4970267;28;20051;-79
2021/01/09 09:56:17;;;;;;;16.23;4.10;;;;;;;-1.36;100.00;100941.81;4968512;28;20086;-78
2021/01/09 09:59:27;;;;;;;62.95;6.40;;;;;;;-1.26;100.00;100929.47;4967710;28;20051;-80
2021/01/09 10:02:30;;;;;;;8.65;3.50;;;;;;;-1.19;100.00;100937.78;4969300;28;20042;-79
2021/01/09 10:05:34;;;;;;;12.30;4.22;;;;;;;-1.18;100.00;100928.41;4969465;28;20050;-79
2021/01/09 10:08:37;;;;;;;23.35;4.97;;;;;;;-1.08;100.00;100938.69;4967570;28;20055;-78
2021/01/09 10:11:42;;;;;;;18.42;7.75;;;;;;;-1.06;100.00;100950.06;4969306;28;20043;-78
2021/01/09 10:14:45;;;;;;;16.75;7.53;;;;;;;-1.03;100.00;100955.56;4969039;28;20039;-78
2021/01/09 10:17:57;;;;;;;22.63;6.55;;;;;;;-1.03;100.00;100965.69;4968883;28;21093;-79
2021/01/09 10:21:00;;;;;;;21.33;6.40;;;;;;;-1.06;100.00;100969.19;4968944;28;20410;-79
2021/01/09 10:24:04;;;;;;;12.85;7.55;;;;;;;-1.08;100.00;100964.06;4969066;28;20138;-79
2021/01/09 10:27:08;;;;;;;35.90;6.05;;;;;;;-1.11;100.00;100966.78;4970993;28;20278;-78
2021/01/09 10:30:12;;;;;;;17.98;4.75;;;;;;;-1.10;100.00;100965.59;4969437;28;20046;-79
2021/01/09 10:33:16;;;;;;;11.73;5.90;;;;;;;-1.03;100.00;100965.69;4968806;28;20108;-79
2021/01/09 10:36:24;;;;;;;26.00;5.68;;;;;;;-1.01;100.00;100958.72;4966545;28;20802;-78
2021/01/09 10:39:27;;;;;;;29.15;6.97;;;;;;;-1.07;100.00;100960.19;4968134;28;20047;-77
2021/01/09 10:42:31;;;;;;;26.92;3.75;;;;;;;-0.99;100.00;100966.53;4997253;28;20049;-78
2021/01/09 10:45:35;;;;;;;37.47;6.45;;;;;;;-0.90;100.00;100958.84;5007760;28;20049;-79
2021/01/09 10:48:38;;;;;;;29.10;5.85;;;;;;;-0.82;100.00;100963.25;5007862;28;20054;-78
2021/01/09 10:51:41;;;;;;;23.25;5.40;;;;;;;-0.77;100.00;100957.44;5007561;28;20037;-78
2021/01/09 10:54:45;;;;;;;41.10;6.75;;;;;;;-0.80;100.00;100958.19;5009061;28;20046;-78
2021/01/09 10:57:48;;;;;;;11.57;4.80;;;;;;;-0.74;100.00;100951.25;5007791;28;20050;-78
2021/01/09 11:00:53;;;;;;;22.77;7.07;;;;;;;-0.71;100.00;100945.03;5007409;28;20050;-78
2021/01/09 11:03:56;;;;;;;10.75;3.92;;;;;;;-0.68;100.00;100948.97;5011822;28;20046;-78
2021/01/09 11:07:00;;;;;;;46.72;6.72;;;;;;;-0.63;100.00;100952.16;5011457;28;20058;-78
2021/01/09 11:10:05;;;;;;;22.30;4.32;;;;;;;-0.62;100.00;100950.19;5011312;28;20062;-78
2021/01/09 11:13:08;;;;;;;15.10;3.85;;;;;;;-0.54;100.00;100952.63;5011368;28;20844;-78
2021/01/09 11:16:12;;;;;;;24.17;6.53;;;;;;;-0.48;100.00;100947.63;5011064;28;20045;-79
2021/01/09 11:19:15;;;;;;;23.73;6.45;;;;;;;-0.39;100.00;100940.69;5012079;28;20045;-79
2021/01/09 11:22:19;;;;;;;17.08;5.85;;;;;;;-0.38;100.00;100939.53;4998159;28;20050;-79
2021/01/09 11:25:22;;;;;;;29.98;5.00;;;;;;;-0.31;100.00;100936.88;5013287;28;20045;-78
2021/01/09 11:28:25;;;;;;;7.22;4.10;;;;;;;-0.19;100.00;100944.00;5010542;28;20050;-81
2021/01/09 11:31:29;;;;;;;6.15;4.20;;;;;;;-0.15;100.00;100934.69;5013577;28;20057;-80
2021/01/09 11:34:33;;;;;;;22.08;6.28;;;;;;;-0.12;100.00;100941.34;5011370;28;20052;-82
2021/01/09 11:37:36;;;;;;;13.15;3.97;;;;;;;0.03;100.00;100934.84;5011107;28;20484;-83
2021/01/09 11:40:40;;;;;;;24.77;4.50;;;;;;;0.08;100.00;100922.75;4998588;28;20434;-83
2021/01/09 11:43:44;;;;;;;16.17;6.72;;;;;;;0.05;100.00;100918.81;4963786;28;20043;-82
2021/01/09 11:46:47;;;;;;;7.38;2.60;;;;;;;-0.02;100.00;100916.81;4939946;29;20055;-81
2021/01/09 11:49:51;;;;;;;10.57;2.97;;;;;;;-0.06;100.00;100921.47;4971307;28;20406;-81
2021/01/09 11:52:54;;;;;;;14.77;5.15;;;;;;;-0.07;100.00;100924.59;4959338;28;20051;-81
2021/01/09 11:55:58;;;;;;;10.00;3.30;;;;;;;-0.05;100.00;100922.25;4970968;28;20722;-81
2021/01/09 11:59:01;;;;;;;27.48;5.68;;;;;;;0.09;100.00;100924.34;4971352;28;20055;-80
2021/01/09 12:02:06;;;;;;;16.65;5.50;;;;;;;0.18;100.00;100927.53;4971538;28;20057;-80
2021/01/09 12:05:10;;;;;;;19.42;6.03;;;;;;;0.27;100.00;100928.00;4970137;28;20171;-80
2021/01/09 12:08:14;;;;;;;8.02;3.15;;;;;;;0.34;100.00;100928.06;4972309;28;20666;-81
2021/01/09 12:11:21;;;;;;;12.35;4.38;;;;;;;0.45;100.00;100921.50;4970922;28;20183;-80
2021/01/09 12:14:24;;;;;;;13.48;5.80;;;;;;;0.52;100.00;100928.97;4971294;28;20096;-79
2021/01/09 12:17:28;;;;;;;13.75;4.57;;;;;;;0.59;100.00;100926.25;4971250;28;20065;-80
2021/01/09 12:20:34;;;;;;;8.90;3.60;;;;;;;0.71;100.00;100925.97;4971581;28;20054;-79
2021/01/09 12:23:39;;;;;;;11.98;3.63;;;;;;;0.81;100.00;100908.00;4971601;28;20069;-80
2021/01/09 12:26:43;;;;;;;8.95;3.65;;;;;;;0.82;100.00;100915.84;4970947;28;20050;-80
2021/01/09 12:29:46;;;;;;;10.77;4.07;;;;;;;0.80;100.00;100906.44;4971035;28;20046;-80
2021/01/09 12:32:49;;;;;;;16.85;5.10;;;;;;;0.84;100.00;100909.97;4970589;28;20918;-80
2021/01/09 12:35:53;;;;;;;5.95;3.15;;;;;;;0.90;100.00;100901.00;4959062;28;20101;-81
2021/01/09 12:38:56;;;;;;;19.17;5.60;;;;;;;0.91;100.00;100902.56;4970907;28;20050;-80
2021/01/09 12:42:00;;;;;;;6.55;3.40;;;;;;;0.98;100.00;100901.78;4983875;28;20052;-79
2021/01/09 12:45:04;;;;;;;20.50;5.82;;;;;;;1.03;100.00;100904.97;5009092;28;20057;-81
2021/01/09 12:48:08;;;;;;;30.02;7.50;;;;;;;1.05;100.00;100908.13;5008989;28;20052;-80
2021/01/09 12:51:11;;;;;;;14.02;3.97;;;;;;;1.03;100.00;100893.22;4989817;28;20053;-80
2021/01/09 12:54:15;;;;;;;7.82;4.50;;;;;;;1.04;100.00;100900.28;4993653;28;20184;-82
2021/01/09 12:57:18;;;;;;;6.55;4.40;;;;;;;1.05;100.00;100886.19;5004303;28;20072;-81
2021/01/09 13:00:22;;;;;;;16.02;5.93;;;;;;;1.14;100.00;100872.88;5011005;28;20053;-80
2021/01/09 13:03:25;;;;;;;12.57;3.92;;;;;;;1.17;100.00;100871.34;5007345;28;20052;-80
2021/01/09 13:06:38;;;;;;;16.95;4.97;;;;;;;1.08;100.00;100865.41;5009700;28;20068;-80
2021/01/09 13:09:41;;;;;;;12.82;4.85;;;;;;;1.02;100.00;100869.72;5009535;28;20045;-82
2021/01/09 13:12:45;;;;;;;14.65;5.45;;;;;;;1.11;100.00;100865.41;5008767;28;20049;-81
2021/01/09 13:15:48;;;;;;;38.35;7.05;;;;;;;1.24;100.00;100874.88;5008918;28;20285;-81
2021/01/09 13:18:51;;;;;;;19.92;5.90;;;;;;;1.21;100.00;100872.88;5009057;28;20060;-81
2021/01/09 13:21:55;;;;;;;12.95;7.07;;;;;;;1.17;100.00;100861.13;5008510;28;20057;-81
2021/01/09 13:24:58;;;;;;;14.70;5.45;;;;;;;1.24;100.00;100861.16;5007566;28;20110;-81
2021/01/09 13:28:02;;;;;;;20.55;6.30;;;;;;;1.22;100.00;100849.78;4991137;28;20069;-81
2021/01/09 13:31:06;;;;;;;12.95;4.00;;;;;;;1.16;100.00;100865.06;4989059;28;20072;-80
2021/01/09 13:34:10;;;;;;;13.25;4.90;;;;;;;1.21;100.00;100861.16;5004054;28;20099;-81
2021/01/09 13:37:15;;;;;;;16.63;4.38;;;;;;;1.34;100.00;100859.63;5004433;28;20053;-80
2021/01/09 13:40:18;;;;;;;11.30;3.53;;;;;;;1.33;100.00;100845.09;4970511;28;20069;-81
2021/01/09 13:43:25;;;;;;;19.15;4.05;;;;;;;1.27;100.00;100846.66;4968737;28;20111;-81
2021/01/09 13:46:29;;;;;;;6.72;3.88;;;;;;;1.11;100.00;100846.22;4956846;28;20081;-79
2021/01/09 13:49:33;;;;;;;9.10;3.97;;;;;;;0.99;100.00;100843.84;4969747;28;20070;-80
2021/01/09 13:52:37;;;;;;;14.45;4.93;;;;;;;0.96;100.00;100854.78;4969748;28;20058;-79
2021/01/09 13:55:40;;;;;;;11.23;2.88;;;;;;;0.96;100.00;100841.88;4969387;28;20057;-81
2021/01/09 13:58:47;;;;;;;14.40;3.53;;;;;;;1.01;100.00;100844.25;4959755;28;20050;-80
2021/01/09 14:01:52;;;;;;;16.92;4.93;;;;;;;1.12;100.00;100853.28;4949420;28;20058;-81
2021/01/09 14:04:55;;;;;;;8.63;3.75;;;;;;;1.19;100.00;100856.03;4961893;28;20057;-79
2021/01/09 14:07:58;;;;;;;6.70;2.00;;;;;;;1.23;100.00;100858.81;4962810;28;20518;-85
2021/01/09 14:11:02;;;;;;;6.40;3.25;;;;;;;1.30;100.00;100859.59;4956346;28;20050;-80
2021/01/09 14:14:10;;;;;;;11.00;3.78;;;;;;;1.36;100.00;100866.28;4967842;28;20725;-77